ZKEAN NZAR-NZKO

Flight info

Callsign ZKEAN
Flight time 0h 46m
Altitude 7000
Route UPLIN Q665 KAWAU Q520 SF
Aircraft DA42/L-SBDGRY/S

Departure

Time 2026-05-08 07:12
Airport Ardmore Airport (NZAR)

Arrival

Time 2026-05-08 07:59
Airport Kaikohe Airport (NZKO)
Time Latitude Longitude Altitude Speed Heading
2026-05-08 06:50 -37.03599 174.97011 110 ft 0 kts 224°
2026-05-08 07:08 -37.03606 174.97010 110 ft 5 kts 150°
2026-05-08 07:08 -37.03603 174.96985 110 ft 9 kts 313°
2026-05-08 07:09 -37.03568 174.96946 110 ft 12 kts 337°
2026-05-08 07:09 -37.03538 174.96953 110 ft 0 kts 325°
2026-05-08 07:11 -37.03526 174.96938 110 ft 8 kts 315°
2026-05-08 07:11 -37.03439 174.96998 111 ft 39 kts 46°
2026-05-08 07:11 -37.03117 174.97410 137 ft 84 kts 46°
2026-05-08 07:12 -37.02640 174.98006 277 ft 103 kts 44°
2026-05-08 07:12 -37.02124 174.98655 534 ft 107 kts 45°
2026-05-08 07:12 -37.01677 174.99408 787 ft 110 kts 64°
2026-05-08 07:12 -37.01342 175.00258 1093 ft 107 kts 64°
2026-05-08 07:13 -37.01018 175.01085 1412 ft 105 kts 64°
2026-05-08 07:13 -37.00699 175.01896 1732 ft 103 kts 65°
2026-05-08 07:13 -37.00419 175.02610 2018 ft 102 kts 65°
2026-05-08 07:13 -37.00109 175.03399 2339 ft 100 kts 64°
2026-05-08 07:14 -36.99798 175.04178 2659 ft 100 kts 60°
2026-05-08 07:14 -36.99271 175.04704 2975 ft 98 kts 16°
2026-05-08 07:14 -36.98606 175.04879 3299 ft 97 kts 11°
2026-05-08 07:14 -36.97948 175.05041 3621 ft 96 kts 11°
2026-05-08 07:15 -36.97294 175.05200 3942 ft 95 kts 10°
2026-05-08 07:15 -36.96645 175.05356 4263 ft 95 kts 11°
2026-05-08 07:15 -36.95990 175.05515 4549 ft 99 kts 11°
2026-05-08 07:15 -36.95297 175.05683 4812 ft 104 kts 11°
2026-05-08 07:16 -36.94567 175.05861 5071 ft 109 kts 11°
2026-05-08 07:16 -36.93807 175.06046 5327 ft 113 kts 11°
2026-05-08 07:16 -36.93021 175.06235 5581 ft 117 kts
2026-05-08 07:16 -36.92228 175.06073 5825 ft 118 kts 330°
2026-05-08 07:17 -36.91561 175.05473 6081 ft 119 kts 321°
2026-05-08 07:17 -36.90901 175.04840 6333 ft 119 kts 321°
2026-05-08 07:17 -36.90275 175.04238 6635 ft 103 kts 321°
2026-05-08 07:17 -36.89756 175.03734 6982 ft 91 kts 321°
2026-05-08 07:18 -36.89272 175.03264 7337 ft 86 kts 321°
2026-05-08 07:18 -36.88812 175.02820 7666 ft 83 kts 321°
2026-05-08 07:18 -36.88343 175.02371 7947 ft 86 kts 321°
2026-05-08 07:18 -36.87857 175.01908 8169 ft 98 kts 322°
2026-05-08 07:19 -36.87229 175.01314 8166 ft 127 kts 322°
2026-05-08 07:19 -36.86474 175.00598 8158 ft 144 kts 323°
2026-05-08 07:19 -36.85561 174.99981 8156 ft 154 kts 333°
2026-05-08 07:19 -36.84582 174.99388 8156 ft 159 kts 333°
2026-05-08 07:20 -36.83577 174.98781 8157 ft 161 kts 333°
2026-05-08 07:20 -36.82561 174.98167 8158 ft 163 kts 333°
2026-05-08 07:20 -36.81540 174.97550 8158 ft 164 kts 333°
2026-05-08 07:20 -36.80512 174.96930 8158 ft 164 kts 333°
2026-05-08 07:21 -36.79485 174.96310 8158 ft 164 kts 333°
2026-05-08 07:21 -36.78455 174.95689 8158 ft 164 kts 333°
2026-05-08 07:21 -36.77543 174.95140 8158 ft 164 kts 333°
2026-05-08 07:21 -36.76564 174.94550 8158 ft 164 kts 333°
2026-05-08 07:22 -36.75533 174.93929 8158 ft 164 kts 333°
2026-05-08 07:22 -36.74502 174.93307 8158 ft 165 kts 333°
2026-05-08 07:22 -36.73472 174.92687 8158 ft 165 kts 333°
2026-05-08 07:22 -36.72440 174.92065 8158 ft 165 kts 333°
2026-05-08 07:23 -36.71409 174.91445 8158 ft 165 kts 333°
2026-05-08 07:23 -36.70378 174.90825 8153 ft 165 kts 333°
2026-05-08 07:23 -36.69333 174.90196 8074 ft 169 kts 333°
2026-05-08 07:23 -36.68276 174.89560 8052 ft 168 kts 333°
2026-05-08 07:24 -36.67233 174.88933 8052 ft 166 kts 333°
2026-05-08 07:24 -36.66192 174.88309 8052 ft 165 kts 333°
2026-05-08 07:24 -36.65157 174.87686 8051 ft 165 kts 333°
2026-05-08 07:24 -36.64125 174.87066 8051 ft 165 kts 333°
2026-05-08 07:25 -36.63092 174.86446 8051 ft 165 kts 333°
2026-05-08 07:25 -36.62060 174.85827 8051 ft 165 kts 333°
2026-05-08 07:25 -36.59996 174.84588 8051 ft 165 kts 333°
2026-05-08 07:26 -36.58963 174.83969 8051 ft 165 kts 333°
2026-05-08 07:26 -36.57932 174.83351 8051 ft 165 kts 333°
2026-05-08 07:26 -36.56900 174.82732 8051 ft 165 kts 333°
2026-05-08 07:26 -36.55866 174.82113 8051 ft 165 kts 333°
2026-05-08 07:27 -36.54835 174.81495 8051 ft 165 kts 333°
2026-05-08 07:27 -36.53883 174.80721 8045 ft 164 kts 313°
2026-05-08 07:27 -36.53187 174.79605 8049 ft 163 kts 305°
2026-05-08 07:27 -36.52521 174.78463 8049 ft 163 kts 305°
2026-05-08 07:28 -36.51865 174.77333 8049 ft 163 kts 305°
2026-05-08 07:28 -36.51198 174.76190 8049 ft 163 kts 305°
2026-05-08 07:28 -36.50532 174.75047 8049 ft 163 kts 305°
2026-05-08 07:28 -36.49864 174.73905 8049 ft 163 kts 305°
2026-05-08 07:29 -36.49198 174.72764 8049 ft 163 kts 305°
2026-05-08 07:29 -36.48530 174.71621 8049 ft 163 kts 305°
2026-05-08 07:29 -36.47863 174.70481 8049 ft 163 kts 305°
2026-05-08 07:29 -36.47195 174.69339 8049 ft 163 kts 305°
2026-05-08 07:30 -36.46525 174.68196 8049 ft 163 kts 305°
2026-05-08 07:30 -36.45858 174.67056 8049 ft 163 kts 305°
2026-05-08 07:30 -36.45188 174.65912 8049 ft 163 kts 305°
2026-05-08 07:30 -36.44520 174.64772 8049 ft 163 kts 305°
2026-05-08 07:31 -36.43739 174.63752 8044 ft 164 kts 325°
2026-05-08 07:31 -36.42681 174.63218 8049 ft 165 kts 345°
2026-05-08 07:31 -36.41568 174.62867 8050 ft 165 kts 345°
2026-05-08 07:31 -36.40455 174.62524 8050 ft 165 kts 345°
2026-05-08 07:32 -36.39337 174.62179 8049 ft 165 kts 345°
2026-05-08 07:32 -36.38237 174.61838 8049 ft 165 kts 345°
2026-05-08 07:32 -36.37107 174.61488 8049 ft 165 kts 345°
2026-05-08 07:32 -36.36006 174.61145 8050 ft 165 kts 345°
2026-05-08 07:33 -36.34888 174.60798 8050 ft 165 kts 345°
2026-05-08 07:33 -36.33772 174.60452 8050 ft 165 kts 345°
2026-05-08 07:33 -36.32657 174.60105 8050 ft 165 kts 345°
2026-05-08 07:33 -36.31539 174.59758 8049 ft 165 kts 345°
2026-05-08 07:34 -36.30424 174.59412 8051 ft 165 kts 345°
2026-05-08 07:34 -36.29305 174.59065 8050 ft 166 kts 345°
2026-05-08 07:34 -36.28188 174.58718 8049 ft 165 kts 345°
2026-05-08 07:34 -36.27071 174.58371 8049 ft 165 kts 345°
2026-05-08 07:35 -36.25954 174.58025 8049 ft 165 kts 345°
2026-05-08 07:35 -36.24840 174.57680 8050 ft 165 kts 345°
2026-05-08 07:35 -36.23724 174.57334 8049 ft 165 kts 345°
2026-05-08 07:35 -36.22608 174.56988 8049 ft 165 kts 345°
2026-05-08 07:36 -36.21493 174.56643 8050 ft 165 kts 345°
2026-05-08 07:36 -36.20391 174.56302 8050 ft 165 kts 345°
2026-05-08 07:36 -36.19295 174.55875 8043 ft 165 kts 332°
2026-05-08 07:36 -36.18281 174.55216 8048 ft 165 kts 331°
2026-05-08 07:37 -36.17271 174.54548 8048 ft 165 kts 331°
2026-05-08 07:37 -36.16261 174.53882 8048 ft 165 kts 331°
2026-05-08 07:37 -36.15250 174.53216 8048 ft 165 kts 331°
2026-05-08 07:37 -36.14239 174.52552 8048 ft 165 kts 331°
2026-05-08 07:38 -36.13227 174.51887 8048 ft 165 kts 331°
2026-05-08 07:38 -36.12214 174.51222 8048 ft 165 kts 331°
2026-05-08 07:38 -36.11202 174.50557 8048 ft 165 kts 331°
2026-05-08 07:38 -36.10191 174.49893 8048 ft 165 kts 331°
2026-05-08 07:39 -36.09179 174.49230 8048 ft 165 kts 331°
2026-05-08 07:39 -36.08167 174.48566 8048 ft 165 kts 331°
2026-05-08 07:39 -36.07155 174.47902 8049 ft 165 kts 331°
2026-05-08 07:39 -36.06143 174.47238 8048 ft 165 kts 331°
2026-05-08 07:40 -36.05129 174.46573 8048 ft 165 kts 331°
2026-05-08 07:40 -36.04115 174.45909 8048 ft 165 kts 331°
2026-05-08 07:40 -36.03102 174.45246 8048 ft 165 kts 331°
2026-05-08 07:40 -36.02090 174.44583 8048 ft 165 kts 331°
2026-05-08 07:41 -36.01078 174.43920 8048 ft 164 kts 331°
2026-05-08 07:41 -36.00079 174.43267 8048 ft 164 kts 331°
2026-05-08 07:41 -35.99067 174.42605 8048 ft 164 kts 331°
2026-05-08 07:41 -35.98056 174.41943 8048 ft 164 kts 331°
2026-05-08 07:42 -35.97044 174.41281 8048 ft 164 kts 331°
2026-05-08 07:42 -35.96033 174.40620 8048 ft 164 kts 331°
2026-05-08 07:42 -35.95022 174.39960 8048 ft 164 kts 331°
2026-05-08 07:42 -35.94008 174.39298 8048 ft 164 kts 331°
2026-05-08 07:43 -35.92998 174.38638 8048 ft 164 kts 331°
2026-05-08 07:43 -35.91985 174.37977 8048 ft 164 kts 331°
2026-05-08 07:43 -35.90987 174.37325 8048 ft 164 kts 331°
2026-05-08 07:43 -35.89974 174.36665 8048 ft 165 kts 331°
2026-05-08 07:44 -35.88962 174.36004 8048 ft 165 kts 331°
2026-05-08 07:44 -35.88070 174.35140 8046 ft 164 kts 314°
2026-05-08 07:44 -35.87270 174.34140 8047 ft 164 kts 313°
2026-05-08 07:44 -35.86471 174.33135 8047 ft 164 kts 313°
2026-05-08 07:45 -35.85672 174.32132 8047 ft 164 kts 313°
2026-05-08 07:45 -35.84874 174.31133 8047 ft 164 kts 313°
2026-05-08 07:45 -35.84076 174.30133 8047 ft 164 kts 313°
2026-05-08 07:45 -35.83275 174.29131 8047 ft 164 kts 313°
2026-05-08 07:46 -35.82477 174.28133 8046 ft 164 kts 313°
2026-05-08 07:46 -35.81688 174.27146 8046 ft 164 kts 313°
2026-05-08 07:46 -35.80888 174.26146 8047 ft 164 kts 313°
2026-05-08 07:46 -35.80088 174.25146 8047 ft 164 kts 314°
2026-05-08 07:47 -35.79288 174.24147 8047 ft 164 kts 314°
2026-05-08 07:47 -35.78489 174.23148 8047 ft 164 kts 314°
2026-05-08 07:47 -35.77688 174.22149 8046 ft 164 kts 314°
2026-05-08 07:47 -35.76889 174.21152 8046 ft 164 kts 314°
2026-05-08 07:48 -35.76091 174.20155 8047 ft 164 kts 314°
2026-05-08 07:48 -35.75290 174.19156 8046 ft 164 kts 314°
2026-05-08 07:48 -35.74490 174.18159 8047 ft 164 kts 314°
2026-05-08 07:48 -35.73690 174.17161 8047 ft 164 kts 314°
2026-05-08 07:49 -35.72890 174.16165 8047 ft 164 kts 314°
2026-05-08 07:49 -35.72100 174.15180 8047 ft 164 kts 314°
2026-05-08 07:49 -35.71300 174.14184 8047 ft 164 kts 314°
2026-05-08 07:49 -35.70500 174.13187 8046 ft 164 kts 314°
2026-05-08 07:50 -35.69699 174.12191 8047 ft 164 kts 314°
2026-05-08 07:50 -35.68898 174.11194 8046 ft 164 kts 314°
2026-05-08 07:50 -35.68099 174.10199 8046 ft 164 kts 314°
2026-05-08 07:50 -35.67299 174.09204 8047 ft 164 kts 314°
2026-05-08 07:51 -35.66498 174.08209 8047 ft 164 kts 314°
2026-05-08 07:51 -35.65696 174.07213 8047 ft 164 kts 314°
2026-05-08 07:51 -35.64894 174.06215 8046 ft 164 kts 314°
2026-05-08 07:51 -35.64092 174.05219 8046 ft 164 kts 314°
2026-05-08 07:52 -35.63301 174.04236 8047 ft 164 kts 314°
2026-05-08 07:52 -35.62501 174.03243 8047 ft 164 kts 314°
2026-05-08 07:52 -35.61699 174.02248 8047 ft 164 kts 314°
2026-05-08 07:52 -35.60895 174.01251 8047 ft 164 kts 314°
2026-05-08 07:53 -35.60093 174.00256 8047 ft 164 kts 314°
2026-05-08 07:53 -35.59292 173.99263 8047 ft 164 kts 314°
2026-05-08 07:53 -35.58489 173.98268 8047 ft 164 kts 314°
2026-05-08 07:53 -35.57688 173.97275 8047 ft 164 kts 314°
2026-05-08 07:54 -35.56870 173.96263 7728 ft 172 kts 314°
2026-05-08 07:54 -35.56015 173.95207 7233 ft 176 kts 314°
2026-05-08 07:54 -35.55148 173.94134 6734 ft 177 kts 314°
2026-05-08 07:54 -35.54280 173.93059 6234 ft 177 kts 314°
2026-05-08 07:55 -35.53414 173.91987 5737 ft 176 kts 314°
2026-05-08 07:55 -35.52564 173.90935 5246 ft 175 kts 314°
2026-05-08 07:55 -35.51706 173.89873 4748 ft 175 kts 314°
2026-05-08 07:55 -35.50848 173.88814 4249 ft 174 kts 314°
2026-05-08 07:56 -35.50271 173.88101 3912 ft 174 kts 314°
2026-05-08 07:56 -35.49149 173.86714 3253 ft 172 kts 314°
2026-05-08 07:56 -35.48699 173.85923 2910 ft 171 kts 292°
2026-05-08 07:56 -35.48588 173.84556 2329 ft 155 kts 263°
2026-05-08 07:57 -35.48726 173.83350 2137 ft 124 kts 261°
2026-05-08 07:57 -35.48848 173.82369 1868 ft 110 kts 260°
2026-05-08 07:57 -35.48865 173.81476 1593 ft 102 kts 287°
2026-05-08 07:57 -35.48421 173.80859 1332 ft 97 kts 334°
2026-05-08 07:58 -35.47777 173.80843 1088 ft 92 kts 12°
2026-05-08 07:58 -35.47217 173.81074 935 ft 83 kts 22°
2026-05-08 07:58 -35.46704 173.81321 834 ft 79 kts 16°
2026-05-08 07:58 -35.46165 173.81446 719 ft 78 kts
2026-05-08 07:59 -35.45623 173.81512 583 ft 76 kts
2026-05-08 07:59 -35.45200 173.81595 550 ft 28 kts
2026-05-08 07:59 -35.45157 173.81608 550 ft 1 kts 89°
2026-05-08 07:59 -35.45153 173.81649 551 ft 6 kts 44°
2026-05-08 08:00 -35.45119 173.81690 553 ft 8 kts 59°
2026-05-08 08:00 -35.45123 173.81723 557 ft 4 kts 137°
2026-05-08 08:00 -35.45130 173.81731 556 ft 0 kts 140°